createdAt,value
2017-11-24T00:02:06.083Z,98497.00
2017-11-24T00:04:33.574Z,98498.78
2017-11-24T00:07:01.052Z,98496.55
2017-11-24T00:09:28.555Z,98496.84
2017-11-24T00:11:56.016Z,98498.13
2017-11-24T00:14:23.482Z,98498.00
2017-11-24T00:16:50.975Z,98498.78
2017-11-24T00:19:18.446Z,98495.17
2017-11-24T00:21:45.911Z,98509.06
2017-11-24T00:24:13.389Z,98503.05
2017-11-24T00:26:40.851Z,98497.80
2017-11-24T00:29:08.318Z,98497.42
2017-11-24T00:31:36.644Z,98502.27
2017-11-24T00:34:04.121Z,98507.34
2017-11-24T00:36:31.590Z,98501.83
2017-11-24T00:38:59.075Z,98498.55
2017-11-24T00:41:26.566Z,98505.44
2017-11-24T00:43:54.026Z,98503.59
2017-11-24T00:46:21.505Z,98505.64
2017-11-24T00:48:48.987Z,98499.77
2017-11-24T00:51:16.470Z,98487.28
2017-11-24T00:53:43.951Z,98495.75
2017-11-24T00:56:11.406Z,98497.24
2017-11-24T00:58:38.882Z,98503.63
2017-11-24T01:01:06.340Z,98500.14
2017-11-24T01:03:33.822Z,98505.38
2017-11-24T01:06:01.291Z,98502.45
2017-11-24T01:08:28.766Z,98504.94
2017-11-24T01:10:56.226Z,98497.91
2017-11-24T01:13:23.686Z,98508.55
2017-11-24T01:15:51.186Z,98508.18
2017-11-24T01:18:18.646Z,98510.77
2017-11-24T01:20:46.122Z,98517.58
2017-11-24T01:23:13.607Z,98508.31
2017-11-24T01:25:41.066Z,98515.34
2017-11-24T01:28:08.527Z,98524.69
2017-11-24T01:30:36.007Z,98510.77
2017-11-24T01:33:03.501Z,98507.41
2017-11-24T01:35:30.972Z,98504.44
2017-11-24T01:37:58.438Z,98498.41
2017-11-24T01:40:25.927Z,98504.75
2017-11-24T01:42:53.399Z,98506.05
2017-11-24T01:45:20.878Z,98506.74
2017-11-24T01:47:48.370Z,98507.09
2017-11-24T01:50:15.841Z,98505.46
2017-11-24T01:52:43.325Z,98500.80
2017-11-24T01:55:10.781Z,98509.40
2017-11-24T01:57:38.267Z,98511.61
2017-11-24T02:00:05.737Z,98512.42
2017-11-24T02:02:33.221Z,98496.41
2017-11-24T02:05:00.684Z,98502.92
2017-11-24T02:07:28.152Z,98500.84
2017-11-24T02:09:55.650Z,98499.20
2017-11-24T02:12:23.101Z,98504.58
2017-11-24T02:14:50.553Z,98512.77
2017-11-24T02:17:18.209Z,98510.72
2017-11-24T02:19:45.678Z,98510.12
2017-11-24T02:22:13.140Z,98511.34
2017-11-24T02:24:40.636Z,98516.20
2017-11-24T02:27:08.100Z,98508.40
2017-11-24T02:29:35.593Z,98507.47
2017-11-24T02:32:03.055Z,98507.69
2017-11-24T02:34:30.521Z,98504.38
2017-11-24T02:36:58.006Z,98503.62
2017-11-24T02:39:25.467Z,98502.34
2017-11-24T02:41:52.959Z,98497.33
2017-11-24T02:44:20.433Z,98488.70
2017-11-24T02:46:47.941Z,98495.14
2017-11-24T02:49:15.464Z,98496.63
2017-11-24T02:51:42.941Z,98513.07
2017-11-24T02:54:10.440Z,98514.48
2017-11-24T02:56:37.931Z,98510.34
2017-11-24T02:59:05.428Z,98510.05
2017-11-24T03:01:32.904Z,98500.27
2017-11-24T03:04:00.389Z,98500.41
2017-11-24T03:06:27.874Z,98502.67
2017-11-24T03:08:55.330Z,98501.81
2017-11-24T03:11:22.807Z,98499.44
2017-11-24T03:13:50.272Z,98495.04
2017-11-24T03:16:17.753Z,98498.31
2017-11-24T03:18:45.263Z,98510.48
2017-11-24T03:21:12.723Z,98516.56
2017-11-24T03:23:40.184Z,98521.17
2017-11-24T03:26:07.685Z,98525.53
2017-11-24T03:28:35.146Z,98512.03
2017-11-24T03:31:02.609Z,98498.25
2017-11-24T03:33:30.095Z,98498.38
2017-11-24T03:35:57.555Z,98507.34
2017-11-24T03:38:25.012Z,98511.83
2017-11-24T03:40:52.491Z,98493.10
2017-11-24T03:43:19.950Z,98503.36
2017-11-24T03:45:47.437Z,98501.14
2017-11-24T03:48:14.894Z,98501.27
2017-11-24T03:50:42.378Z,98496.59
2017-11-24T03:53:09.850Z,98497.02
2017-11-24T03:55:37.317Z,98501.64
2017-11-24T03:58:04.799Z,98499.41
2017-11-24T04:00:32.258Z,98508.88
2017-11-24T04:02:59.752Z,98520.50
2017-11-24T04:05:27.247Z,98516.14
2017-11-24T04:07:54.926Z,98519.86
2017-11-24T04:10:22.386Z,98512.99
2017-11-24T04:12:49.884Z,98517.77
2017-11-24T04:15:17.364Z,98508.20
2017-11-24T04:17:44.825Z,98508.58
2017-11-24T04:20:12.313Z,98501.75
2017-11-24T04:22:39.775Z,98488.04
2017-11-24T04:25:07.267Z,98485.60
2017-11-24T04:27:34.726Z,98477.80
2017-11-24T04:30:02.191Z,98481.72
2017-11-24T04:32:29.677Z,98480.44
2017-11-24T04:34:57.139Z,98488.96
2017-11-24T04:37:24.634Z,98484.56
2017-11-24T04:39:52.095Z,98482.08
2017-11-24T04:42:19.567Z,98472.97
2017-11-24T04:44:47.062Z,98484.20
2017-11-24T04:47:14.573Z,98486.70
2017-11-24T04:49:42.053Z,98491.98
2017-11-24T04:52:09.519Z,98493.17
2017-11-24T04:54:36.998Z,98496.65
2017-11-24T04:57:04.479Z,98486.34
2017-11-24T04:59:31.956Z,98489.76
2017-11-24T05:01:59.414Z,98482.70
2017-11-24T05:04:26.903Z,98482.95
2017-11-24T05:06:54.366Z,98474.59
2017-11-24T05:09:21.847Z,98468.75
2017-11-24T05:11:49.302Z,98464.70
2017-11-24T05:14:16.792Z,98458.55
2017-11-24T05:16:44.278Z,98457.63
2017-11-24T05:19:11.771Z,98463.55
2017-11-24T05:21:39.235Z,98458.86
2017-11-24T05:24:06.713Z,98466.23
2017-11-24T05:26:34.207Z,98467.91
2017-11-24T05:29:01.695Z,98463.72
2017-11-24T05:31:29.178Z,98468.81
2017-11-24T05:33:56.660Z,98466.86
2017-11-24T05:36:24.156Z,98475.06
2017-11-24T05:38:51.627Z,98471.75
2017-11-24T05:41:19.117Z,98473.52
2017-11-24T05:43:46.617Z,98468.59
2017-11-24T05:46:14.087Z,98467.38
2017-11-24T05:48:41.556Z,98472.73
2017-11-24T05:51:09.042Z,98477.84
2017-11-24T05:53:36.529Z,98475.58
2017-11-24T05:56:04.017Z,98472.58
2017-11-24T05:58:31.495Z,98468.80
2017-11-24T06:00:59.506Z,98473.36
2017-11-24T06:03:26.983Z,98472.08
2017-11-24T06:05:54.452Z,98475.81
2017-11-24T06:08:21.942Z,98480.38
2017-11-24T06:10:49.406Z,98490.66
2017-11-24T06:13:16.895Z,98496.27
2017-11-24T06:15:44.362Z,98505.82
2017-11-24T06:18:11.861Z,98501.27
2017-11-24T06:20:39.355Z,98504.65
2017-11-24T06:23:06.863Z,98502.91
2017-11-24T06:25:34.370Z,98504.02
2017-11-24T06:28:02.441Z,98500.58
2017-11-24T06:30:29.918Z,98491.73
2017-11-24T06:32:57.470Z,98498.18
2017-11-24T06:35:24.954Z,98491.43
2017-11-24T06:37:52.431Z,98496.09
2017-11-24T06:40:19.914Z,98492.36
2017-11-24T06:42:47.418Z,98486.79
2017-11-24T06:45:14.914Z,98484.05
2017-11-24T06:47:42.375Z,98482.17
2017-11-24T06:50:09.962Z,98487.49
2017-11-24T06:52:37.799Z,98491.09
2017-11-24T06:55:05.263Z,98486.64
2017-11-24T06:57:32.751Z,98496.34
2017-11-24T07:00:00.220Z,98490.80
2017-11-24T07:02:27.714Z,98500.03
2017-11-24T07:04:55.171Z,98498.52
2017-11-24T07:07:22.657Z,98494.29
2017-11-24T07:09:50.135Z,98492.33
2017-11-24T07:12:17.601Z,98498.30
2017-11-24T07:14:45.092Z,98495.59
2017-11-24T07:17:12.550Z,98492.73
2017-11-24T07:19:40.037Z,98491.72
2017-11-24T07:22:07.495Z,98492.02
2017-11-24T07:24:34.959Z,98486.86
2017-11-24T07:27:02.548Z,98487.03
2017-11-24T07:29:30.004Z,98489.67
2017-11-24T07:31:57.470Z,98492.15
2017-11-24T07:34:24.966Z,98493.00
2017-11-24T07:36:52.420Z,98493.44
2017-11-24T07:39:19.908Z,98487.94
2017-11-24T07:41:47.374Z,98485.36
2017-11-24T07:44:14.834Z,98489.02
2017-11-24T07:46:42.318Z,98499.47
2017-11-24T07:49:09.791Z,98498.64
2017-11-24T07:51:37.292Z,98500.13
2017-11-24T07:54:04.744Z,98504.08
2017-11-24T07:56:32.591Z,98498.21
2017-11-24T07:59:00.063Z,98493.47
2017-11-24T08:01:27.530Z,98492.80
2017-11-24T08:03:55.289Z,98478.79
2017-11-24T08:06:22.761Z,98483.71
2017-11-24T08:08:50.230Z,98485.25
2017-11-24T08:11:17.715Z,98482.22
2017-11-24T08:13:45.171Z,98475.60
2017-11-24T08:16:12.670Z,98481.50
2017-11-24T08:18:40.153Z,98482.70
2017-11-24T08:21:07.615Z,98481.14
2017-11-24T08:23:35.110Z,98474.23
2017-11-24T08:26:02.603Z,98477.95
2017-11-24T08:28:30.249Z,98469.95
2017-11-24T08:30:57.707Z,98476.63
2017-11-24T08:33:25.183Z,98477.61
2017-11-24T08:35:52.688Z,98479.49
2017-11-24T08:38:20.155Z,98478.26
2017-11-24T08:40:47.650Z,98496.22
2017-11-24T08:43:15.112Z,98500.29
2017-11-24T08:45:42.658Z,98487.65
2017-11-24T08:48:15.690Z,98492.02
2017-11-24T08:50:43.157Z,98483.77
2017-11-24T08:53:10.631Z,98480.70
2017-11-24T08:55:38.086Z,98482.88
2017-11-24T08:58:05.567Z,98478.51
2017-11-24T09:00:33.055Z,98480.32
2017-11-24T09:03:00.533Z,98475.73
2017-11-24T09:05:28.026Z,98469.09
2017-11-24T09:07:55.491Z,98471.73
2017-11-24T09:10:22.974Z,98468.89
2017-11-24T09:12:50.434Z,98469.16
2017-11-24T09:15:17.891Z,98471.42
2017-11-24T09:17:45.380Z,98477.76
2017-11-24T09:20:12.839Z,98471.72
2017-11-24T09:22:40.335Z,98473.64
2017-11-24T09:25:07.874Z,98471.67
2017-11-24T09:27:35.369Z,98473.53
2017-11-24T09:30:02.858Z,98472.48
2017-11-24T09:32:30.332Z,98468.54
2017-11-24T09:34:58.059Z,98470.91
2017-11-24T09:37:25.538Z,98470.27
2017-11-24T09:39:53.007Z,98468.54
2017-11-24T09:42:20.533Z,98454.36
2017-11-24T09:44:47.991Z,98459.97
2017-11-24T09:47:15.473Z,98459.73
2017-11-24T09:49:42.971Z,98456.00
2017-11-24T09:52:10.453Z,98444.58
2017-11-24T09:54:37.938Z,98447.72
2017-11-24T09:57:05.429Z,98447.41
2017-11-24T09:59:32.892Z,98429.73
2017-11-24T10:02:00.356Z,98440.09
2017-11-24T10:04:27.834Z,98443.44
2017-11-24T10:06:55.314Z,98434.75
2017-11-24T10:09:22.759Z,98441.64
2017-11-24T10:11:50.239Z,98439.61
2017-11-24T10:14:17.711Z,98439.23
2017-11-24T10:16:45.175Z,98436.92
2017-11-24T10:19:12.660Z,98425.95
2017-11-24T10:21:45.734Z,98428.15
2017-11-24T10:24:13.218Z,98426.73
2017-11-24T10:26:40.683Z,98423.78
2017-11-24T10:29:08.188Z,98420.64
2017-11-24T10:31:35.674Z,98416.97
2017-11-24T10:34:03.137Z,98408.73
2017-11-24T10:36:30.601Z,98400.04
2017-11-24T10:38:58.080Z,98393.23
2017-11-24T10:41:25.562Z,98397.00
2017-11-24T10:43:53.021Z,98394.86
2017-11-24T10:46:20.501Z,98376.33
2017-11-24T10:48:47.993Z,98378.77
2017-11-24T10:51:15.498Z,98378.00
2017-11-24T10:53:43.318Z,98375.99
2017-11-24T10:56:10.775Z,98377.61
2017-11-24T10:58:38.315Z,98374.93
2017-11-24T11:01:05.801Z,98373.05
2017-11-24T11:03:33.275Z,98368.55
2017-11-24T11:06:00.759Z,98369.66
2017-11-24T11:08:28.213Z,98372.16
2017-11-24T11:10:55.693Z,98366.73
2017-11-24T11:13:23.170Z,98364.16
2017-11-24T11:15:50.622Z,98366.08
2017-11-24T11:18:18.090Z,98354.50
2017-11-24T11:20:45.575Z,98368.05
2017-11-24T11:23:13.043Z,98361.20
2017-11-24T11:25:40.498Z,98359.05
2017-11-24T11:28:07.978Z,98357.53
2017-11-24T11:30:35.435Z,98350.89
2017-11-24T11:33:02.890Z,98346.59
2017-11-24T11:35:30.371Z,98364.63
2017-11-24T11:37:57.855Z,98348.36
2017-11-24T11:40:25.331Z,98338.63
2017-11-24T11:42:52.806Z,98334.70
2017-11-24T11:45:20.287Z,98336.64
2017-11-24T11:47:47.742Z,98318.14
2017-11-24T11:50:15.248Z,98323.55
2017-11-24T11:52:42.717Z,98326.14
2017-11-24T11:55:10.172Z,98311.21
2017-11-24T11:57:37.674Z,98311.14
2017-11-24T12:00:05.139Z,98315.33
2017-11-24T12:02:32.601Z,98306.63
2017-11-24T12:05:00.104Z,98314.98
2017-11-24T12:07:27.583Z,98319.40
2017-11-24T12:09:55.042Z,98318.80
2017-11-24T12:12:22.520Z,98311.70
2017-11-24T12:14:49.978Z,98311.78
2017-11-24T12:17:17.429Z,98314.17
2017-11-24T12:19:44.913Z,98310.23
2017-11-24T12:22:12.379Z,98309.44
2017-11-24T12:24:39.875Z,98318.20
2017-11-24T12:27:07.337Z,98306.34
2017-11-24T12:29:34.806Z,98300.20
2017-11-24T12:32:02.293Z,98291.76
2017-11-24T12:34:29.751Z,98294.50
2017-11-24T12:36:57.218Z,98282.77
2017-11-24T12:39:24.714Z,98280.77
2017-11-24T12:41:52.192Z,98276.84
2017-11-24T12:44:19.683Z,98275.25
2017-11-24T12:46:47.142Z,98271.49
2017-11-24T12:49:14.636Z,98275.77
2017-11-24T12:51:42.089Z,98276.81
2017-11-24T12:54:09.540Z,98277.20
2017-11-24T12:56:37.016Z,98275.25
2017-11-24T12:59:04.475Z,98278.77
2017-11-24T13:01:31.947Z,98288.02
2017-11-24T13:03:59.401Z,98276.70
2017-11-24T13:06:26.882Z,98269.39
2017-11-24T13:08:54.346Z,98274.47
2017-11-24T13:11:21.902Z,98273.06
2017-11-24T13:13:49.383Z,98276.27
2017-11-24T13:16:16.867Z,98265.13
2017-11-24T13:18:44.326Z,98262.61
2017-11-24T13:21:11.808Z,98262.09
2017-11-24T13:23:39.258Z,98265.27
2017-11-24T13:26:06.719Z,98254.61
2017-11-24T13:28:34.202Z,98255.32
2017-11-24T13:31:01.676Z,98254.87
2017-11-24T13:33:29.161Z,98257.77
2017-11-24T13:35:56.622Z,98258.88
2017-11-24T13:38:24.108Z,98259.34
2017-11-24T13:40:51.563Z,98252.64
2017-11-24T13:43:19.038Z,98250.72
2017-11-24T13:45:46.496Z,98252.98
2017-11-24T13:48:13.949Z,98261.98
2017-11-24T13:50:41.446Z,98251.78
2017-11-24T13:53:08.973Z,98256.36
2017-11-24T13:55:36.483Z,98260.19
2017-11-24T13:58:03.952Z,98251.34
2017-11-24T14:00:31.439Z,98250.95
2017-11-24T14:02:58.945Z,98263.97
2017-11-24T14:05:26.435Z,98260.92
2017-11-24T14:07:53.969Z,98264.40
2017-11-24T14:10:21.452Z,98269.45
2017-11-24T14:12:48.958Z,98268.91
2017-11-24T14:15:16.454Z,98271.92
2017-11-24T14:17:43.911Z,98271.64
2017-11-24T14:20:11.384Z,98276.61
2017-11-24T14:22:38.843Z,98272.99
2017-11-24T14:25:06.333Z,98269.95
2017-11-24T14:27:34.126Z,98273.35
2017-11-24T14:30:01.599Z,98269.20
2017-11-24T14:32:29.091Z,98278.10
2017-11-24T14:34:56.544Z,98274.91
2017-11-24T14:37:24.045Z,98275.59
2017-11-24T14:39:51.502Z,98278.58
2017-11-24T14:42:18.971Z,98278.83
2017-11-24T14:44:46.478Z,98271.63
2017-11-24T14:47:13.954Z,98273.13
2017-11-24T14:49:41.431Z,98280.79
2017-11-24T14:52:08.894Z,98283.52
2017-11-24T14:54:37.378Z,98280.30
2017-11-24T14:57:05.572Z,98273.31
2017-11-24T14:59:33.780Z,98268.74
2017-11-24T15:02:01.992Z,98277.95
2017-11-24T15:04:29.464Z,98272.84
2017-11-24T15:06:56.942Z,98272.06
2017-11-24T15:09:24.412Z,98273.72
2017-11-24T15:11:51.903Z,98274.64
2017-11-24T15:14:19.352Z,98283.80
2017-11-24T15:16:46.842Z,98277.50
2017-11-24T15:19:14.303Z,98286.20
2017-11-24T15:21:41.788Z,98286.27
2017-11-24T15:24:09.264Z,98287.94
2017-11-24T15:26:36.754Z,98284.80
2017-11-24T15:29:04.212Z,98279.91
2017-11-24T15:31:31.669Z,98283.89
2017-11-24T15:33:59.154Z,98276.45
2017-11-24T15:36:26.623Z,98278.23
2017-11-24T15:38:54.107Z,98277.36
2017-11-24T15:41:21.575Z,98269.76
2017-11-24T15:43:49.086Z,98271.80
2017-11-24T15:46:16.565Z,98275.88
2017-11-24T15:48:44.022Z,98278.55
2017-11-24T15:51:11.553Z,98281.43
2017-11-24T15:53:39.044Z,98291.41
2017-11-24T15:56:06.506Z,98292.02
2017-11-24T15:58:33.994Z,98298.94
2017-11-24T16:01:01.454Z,98303.67
2017-11-24T16:03:28.935Z,98297.63
2017-11-24T16:05:56.413Z,98295.38
2017-11-24T16:08:23.877Z,98293.53
2017-11-24T16:10:51.370Z,98298.28
2017-11-24T16:13:18.849Z,98298.52
2017-11-24T16:15:46.335Z,98292.52
2017-11-24T16:18:13.836Z,98288.47
2017-11-24T16:20:41.303Z,98286.50
2017-11-24T16:23:08.795Z,98288.86
2017-11-24T16:25:36.262Z,98294.56
2017-11-24T16:28:03.733Z,98292.63
2017-11-24T16:30:31.238Z,98300.60
2017-11-24T16:33:00.430Z,98301.75
2017-11-24T16:35:29.899Z,98297.73
2017-11-24T16:37:57.481Z,98292.63
2017-11-24T16:40:24.955Z,98286.97
2017-11-24T16:42:52.443Z,98287.92
2017-11-24T16:45:19.902Z,98293.41
2017-11-24T16:47:47.385Z,98283.34
2017-11-24T16:50:14.857Z,98287.55
2017-11-24T16:52:42.339Z,98297.41
2017-11-24T16:55:09.823Z,98303.36
2017-11-24T16:57:37.831Z,98299.25
2017-11-24T17:00:05.396Z,98298.56
2017-11-24T17:02:32.870Z,98295.66
2017-11-24T17:05:00.338Z,98287.64
2017-11-24T17:07:28.726Z,98284.21
2017-11-24T17:09:56.182Z,98269.78
2017-11-24T17:12:23.641Z,98283.23
2017-11-24T17:14:51.133Z,98276.23
2017-11-24T17:17:18.627Z,98284.09
2017-11-24T17:19:46.092Z,98284.41
2017-11-24T17:22:13.567Z,98288.66
2017-11-24T17:24:41.078Z,98290.00
2017-11-24T17:27:08.575Z,98298.89
2017-11-24T17:29:36.047Z,98298.40
2017-11-24T17:32:03.510Z,98306.78
2017-11-24T17:34:31.293Z,98313.88
2017-11-24T17:36:58.780Z,98303.02
2017-11-24T17:39:26.247Z,98296.70
2017-11-24T17:41:53.719Z,98303.38
2017-11-24T17:44:21.224Z,98308.05
2017-11-24T17:46:48.840Z,98312.21
2017-11-24T17:49:16.355Z,98319.17
2017-11-24T17:51:43.817Z,98320.86
2017-11-24T17:54:11.318Z,98317.73
2017-11-24T17:56:38.822Z,98315.14
2017-11-24T17:59:06.282Z,98311.81
2017-11-24T18:01:33.802Z,98314.20
2017-11-24T18:04:01.363Z,98317.91
2017-11-24T18:06:28.874Z,98326.18
2017-11-24T18:08:56.346Z,98323.63
2017-11-24T18:11:23.836Z,98318.80
2017-11-24T18:13:51.983Z,98309.94
2017-11-24T18:16:19.946Z,98311.72
2017-11-24T18:18:47.406Z,98307.90
2017-11-24T18:21:14.899Z,98304.66
2017-11-24T18:23:42.374Z,98305.08
2017-11-24T18:26:10.035Z,98308.38
2017-11-24T18:28:37.778Z,98299.27
2017-11-24T18:31:07.128Z,98295.61
2017-11-24T18:33:34.687Z,98303.91
2017-11-24T18:36:02.170Z,98306.25
2017-11-24T18:38:29.644Z,98308.67
2017-11-24T18:40:57.150Z,98301.20
2017-11-24T18:43:24.637Z,98302.69
2017-11-24T18:45:52.127Z,98307.83
2017-11-24T18:48:19.598Z,98314.76
2017-11-24T18:50:47.394Z,98308.55
2017-11-24T18:53:15.759Z,98317.47
2017-11-24T18:55:43.694Z,98311.14
2017-11-24T18:58:11.672Z,98318.69
2017-11-24T19:00:39.298Z,98318.66
2017-11-24T19:03:06.808Z,98316.48
2017-11-24T19:05:34.486Z,98316.24
2017-11-24T19:08:02.339Z,98312.64
2017-11-24T19:10:31.263Z,98310.39
2017-11-24T19:12:59.182Z,98309.70
2017-11-24T19:15:26.811Z,98308.03
2017-11-24T19:17:54.274Z,98305.19
2017-11-24T19:20:22.147Z,98303.86
2017-11-24T19:22:49.705Z,98304.67
2017-11-24T19:25:17.358Z,98304.23
2017-11-24T19:27:44.850Z,98311.27
2017-11-24T19:30:12.335Z,98313.41
2017-11-24T19:32:39.945Z,98312.81
2017-11-24T19:35:07.786Z,98315.19
2017-11-24T19:37:35.266Z,98316.87
2017-11-24T19:40:02.942Z,98323.55
2017-11-24T19:42:30.433Z,98338.11
2017-11-24T19:44:57.895Z,98329.45
2017-11-24T19:47:25.398Z,98325.77
2017-11-24T19:49:53.760Z,98326.16
2017-11-24T19:52:21.227Z,98325.38
2017-11-24T19:54:49.649Z,98327.98
2017-11-24T19:57:17.114Z,98316.75
2017-11-24T19:59:45.143Z,98311.23
2017-11-24T20:02:12.648Z,98318.20
2017-11-24T20:04:40.133Z,98319.48
2017-11-24T20:07:08.134Z,98322.43
2017-11-24T20:09:35.605Z,98321.23
2017-11-24T20:12:03.169Z,98318.78
2017-11-24T20:14:31.176Z,98328.25
2017-11-24T20:16:58.954Z,98328.88
2017-11-24T20:19:26.414Z,98318.64
2017-11-24T20:21:53.882Z,98326.53
2017-11-24T20:24:21.467Z,98323.95
2017-11-24T20:26:49.261Z,98316.55
2017-11-24T20:29:16.830Z,98312.79
2017-11-24T20:31:44.333Z,98310.87
2017-11-24T20:34:11.818Z,98305.70
2017-11-24T20:36:39.341Z,98301.29
2017-11-24T20:39:06.819Z,98296.88
2017-11-24T20:41:34.315Z,98304.67
2017-11-24T20:44:02.377Z,98311.83
2017-11-24T20:46:29.856Z,98304.16
2017-11-24T20:48:57.370Z,98297.27
2017-11-24T20:51:25.105Z,98313.88
2017-11-24T20:53:52.662Z,98313.62
2017-11-24T20:56:20.774Z,98304.23
2017-11-24T20:58:48.270Z,98303.32
2017-11-24T21:01:15.760Z,98306.75
2017-11-24T21:03:43.237Z,98300.22
2017-11-24T21:06:10.918Z,98303.38
2017-11-24T21:08:38.371Z,98297.02
2017-11-24T21:11:05.867Z,98290.41
2017-11-24T21:13:33.334Z,98292.48
2017-11-24T21:16:00.820Z,98279.22
2017-11-24T21:18:28.311Z,98269.98
2017-11-24T21:20:55.783Z,98258.30
2017-11-24T21:23:23.269Z,98270.63
2017-11-24T21:25:50.742Z,98293.44
2017-11-24T21:28:18.247Z,98284.18
2017-11-24T21:30:45.714Z,98281.75
2017-11-24T21:33:13.227Z,98279.06
2017-11-24T21:35:40.730Z,98271.27
2017-11-24T21:38:08.420Z,98282.53
2017-11-24T21:40:35.891Z,98294.70
2017-11-24T21:43:03.374Z,98291.27
2017-11-24T21:45:30.851Z,98285.00
2017-11-24T21:47:58.346Z,98287.48
2017-11-24T21:50:25.837Z,98298.38
2017-11-24T21:52:53.816Z,98298.32
2017-11-24T21:55:21.312Z,98294.23
2017-11-24T21:57:48.795Z,98291.61
2017-11-24T22:00:16.278Z,98286.87
2017-11-24T22:02:43.763Z,98298.70
2017-11-24T22:05:11.250Z,98302.30
2017-11-24T22:07:38.746Z,98307.30
2017-11-24T22:10:06.210Z,98311.20
2017-11-24T22:12:33.696Z,98308.78
2017-11-24T22:15:01.162Z,98306.20
2017-11-24T22:17:28.653Z,98314.02
2017-11-24T22:19:56.142Z,98313.12
2017-11-24T22:22:23.870Z,98301.05
2017-11-24T22:24:51.357Z,98312.34
2017-11-24T22:27:18.831Z,98306.64
2017-11-24T22:29:46.442Z,98294.92
2017-11-24T22:32:15.394Z,98298.05
2017-11-24T22:34:44.054Z,98297.56
2017-11-24T22:37:11.518Z,98293.72
2017-11-24T22:39:38.990Z,98294.61
2017-11-24T22:42:06.471Z,98288.92
2017-11-24T22:44:33.928Z,98286.29
2017-11-24T22:47:01.400Z,98279.89
2017-11-24T22:49:28.890Z,98287.09
2017-11-24T22:51:56.358Z,98291.91
2017-11-24T22:54:23.848Z,98285.08
2017-11-24T22:56:51.324Z,98285.86
2017-11-24T22:59:18.818Z,98277.51
2017-11-24T23:01:46.291Z,98270.54
2017-11-24T23:04:13.754Z,98268.55
2017-11-24T23:06:41.254Z,98281.59
2017-11-24T23:09:08.749Z,98275.67
2017-11-24T23:11:36.222Z,98277.87
2017-11-24T23:14:03.690Z,98280.31
2017-11-24T23:16:31.202Z,98268.42
2017-11-24T23:18:58.673Z,98277.41
2017-11-24T23:21:26.140Z,98267.15
2017-11-24T23:23:53.639Z,98279.17
2017-11-24T23:26:21.155Z,98281.21
2017-11-24T23:28:48.615Z,98266.28
2017-11-24T23:31:16.070Z,98263.77
2017-11-24T23:33:43.554Z,98268.47
2017-11-24T23:36:11.007Z,98269.39
2017-11-24T23:38:38.487Z,98273.64
2017-11-24T23:41:05.959Z,98276.44
2017-11-24T23:43:33.434Z,98280.86
2017-11-24T23:46:00.932Z,98275.76
2017-11-24T23:48:28.396Z,98273.15
2017-11-24T23:50:55.855Z,98264.25
2017-11-24T23:53:23.339Z,98260.36
2017-11-24T23:55:50.845Z,98253.02
2017-11-24T23:58:18.334Z,98237.11
